createdAt,value
2022-11-05T00:02:01.059Z,79.40
2022-11-05T00:04:47.303Z,80.41
2022-11-05T00:07:34.441Z,78.81
2022-11-05T00:10:04.483Z,79.42
2022-11-05T00:13:07.797Z,79.24
2022-11-05T00:15:54.112Z,80.09
2022-11-05T00:18:21.531Z,79.27
2022-11-05T00:20:49.240Z,79.54
2022-11-05T00:23:35.254Z,80.05
2022-11-05T00:26:07.517Z,80.56
2022-11-05T00:28:35.947Z,80.40
2022-11-05T00:31:09.851Z,79.31
2022-11-05T00:33:38.251Z,79.33
2022-11-05T00:36:06.423Z,80.36
2022-11-05T00:38:34.556Z,79.86
2022-11-05T00:41:02.103Z,80.03
2022-11-05T00:43:48.231Z,80.03
2022-11-05T00:46:15.923Z,79.55
2022-11-05T00:49:01.885Z,79.60
2022-11-05T00:51:29.558Z,79.63
2022-11-05T00:53:56.996Z,79.56
2022-11-05T00:56:24.581Z,79.34
2022-11-05T00:58:51.989Z,78.40
2022-11-05T01:01:19.566Z,77.93
2022-11-05T01:03:51.528Z,77.60
2022-11-05T01:06:19.769Z,78.32
2022-11-05T01:08:47.287Z,77.49
2022-11-05T01:11:34.471Z,77.45
2022-11-05T01:14:13.119Z,77.73
2022-11-05T01:16:40.971Z,77.25
2022-11-05T01:19:09.237Z,78.11
2022-11-05T01:21:36.929Z,77.93
2022-11-05T01:24:04.641Z,78.33
2022-11-05T01:26:32.126Z,77.14
2022-11-05T01:29:02.470Z,77.97
2022-11-05T01:31:30.200Z,77.34
2022-11-05T01:33:57.582Z,78.87
2022-11-05T01:36:25.137Z,77.38
2022-11-05T01:38:52.635Z,77.52
2022-11-05T01:41:20.036Z,77.69
2022-11-05T01:43:55.283Z,77.96
2022-11-05T01:46:36.841Z,78.23
2022-11-05T01:49:22.416Z,78.70
2022-11-05T01:51:51.480Z,78.66
2022-11-05T01:54:19.901Z,78.96
2022-11-05T01:56:50.582Z,78.52
2022-11-05T01:59:26.381Z,79.12
2022-11-05T02:01:54.145Z,78.90
2022-11-05T02:04:33.639Z,77.75
2022-11-05T02:07:01.230Z,77.89
2022-11-05T02:09:35.213Z,78.20
2022-11-05T02:12:02.988Z,78.01
2022-11-05T02:14:30.415Z,78.36
2022-11-05T02:17:16.930Z,76.62
2022-11-05T02:19:53.583Z,76.98
2022-11-05T02:22:39.561Z,77.47
2022-11-05T02:25:30.009Z,77.06
2022-11-05T02:28:18.284Z,76.62
2022-11-05T02:30:47.874Z,77.41
2022-11-05T02:33:24.260Z,76.66
2022-11-05T02:35:59.262Z,76.65
2022-11-05T02:38:44.914Z,77.57
2022-11-05T02:41:12.425Z,77.67
2022-11-05T02:44:17.455Z,77.68
2022-11-05T02:47:00.660Z,76.71
2022-11-05T02:49:46.764Z,76.28
2022-11-05T02:52:33.534Z,76.72
2022-11-05T02:55:27.606Z,76.15
2022-11-05T02:57:55.310Z,75.82
2022-11-05T03:00:43.430Z,75.70
2022-11-05T03:03:18.367Z,75.24
2022-11-05T03:06:13.829Z,76.74
2022-11-05T03:08:59.875Z,75.35
2022-11-05T03:11:29.116Z,75.40
2022-11-05T03:14:20.342Z,75.22
2022-11-05T03:17:18.420Z,75.25
2022-11-05T03:20:11.424Z,75.16
2022-11-05T03:22:41.812Z,75.41
2022-11-05T03:25:12.906Z,75.82
2022-11-05T03:27:42.368Z,74.69
2022-11-05T03:30:10.743Z,75.93
2022-11-05T03:32:41.049Z,75.89
2022-11-05T03:35:12.875Z,75.80
2022-11-05T03:37:41.574Z,75.95
2022-11-05T03:40:09.721Z,75.65
2022-11-05T03:42:38.072Z,76.12
2022-11-05T03:45:11.666Z,75.71
2022-11-05T03:47:40.401Z,74.96
2022-11-05T03:50:13.302Z,74.83
2022-11-05T03:52:44.556Z,74.88
2022-11-05T03:55:12.059Z,75.14
2022-11-05T03:57:41.008Z,74.90
2022-11-05T04:00:09.588Z,74.33
2022-11-05T04:02:39.324Z,74.85
2022-11-05T04:05:07.058Z,73.87
2022-11-05T04:07:52.952Z,72.76
2022-11-05T04:10:39.106Z,73.73
2022-11-05T04:13:24.727Z,73.98
2022-11-05T04:16:14.706Z,73.32
2022-11-05T04:18:42.552Z,73.29
2022-11-05T04:21:28.465Z,73.41
2022-11-05T04:24:08.562Z,72.72
2022-11-05T04:26:43.894Z,74.22
2022-11-05T04:29:29.924Z,72.77
2022-11-05T04:31:57.850Z,73.19
2022-11-05T04:34:25.455Z,72.85
2022-11-05T04:36:53.469Z,72.91
2022-11-05T04:39:21.123Z,73.01
2022-11-05T04:41:48.979Z,73.11
2022-11-05T04:44:16.783Z,72.56
2022-11-05T04:46:44.356Z,72.63
2022-11-05T04:49:11.993Z,73.09
2022-11-05T04:51:39.552Z,72.61
2022-11-05T04:54:07.275Z,71.94
2022-11-05T04:56:34.693Z,71.92
2022-11-05T04:59:02.011Z,71.84
2022-11-05T05:01:29.720Z,72.09
2022-11-05T05:03:57.283Z,72.23
2022-11-05T05:06:25.031Z,72.55
2022-11-05T05:08:52.538Z,73.02
2022-11-05T05:11:21.038Z,73.57
2022-11-05T05:13:48.670Z,74.23
2022-11-05T05:16:23.964Z,74.22
2022-11-05T05:18:51.601Z,74.56
2022-11-05T05:21:38.528Z,74.76
2022-11-05T05:24:09.139Z,75.20
2022-11-05T05:26:41.768Z,75.14
2022-11-05T05:29:09.413Z,74.91
2022-11-05T05:31:37.180Z,75.14
2022-11-05T05:34:05.596Z,75.19
2022-11-05T05:36:33.148Z,75.11
2022-11-05T05:39:00.716Z,74.74
2022-11-05T05:41:28.095Z,74.87
2022-11-05T05:43:55.838Z,74.87
2022-11-05T05:46:23.330Z,74.78
2022-11-05T05:48:51.571Z,75.19
2022-11-05T05:51:19.196Z,75.15
2022-11-05T05:53:46.763Z,75.47
2022-11-05T05:56:19.506Z,75.33
2022-11-05T05:58:47.513Z,75.22
2022-11-05T06:01:19.207Z,75.41
2022-11-05T06:03:48.140Z,74.98
2022-11-05T06:06:19.833Z,74.65
2022-11-05T06:08:47.915Z,74.32
2022-11-05T06:11:15.423Z,74.55
2022-11-05T06:13:42.887Z,72.44
2022-11-05T06:16:10.326Z,73.19
2022-11-05T06:18:38.201Z,74.43
2022-11-05T06:21:07.361Z,73.88
2022-11-05T06:23:35.604Z,73.57
2022-11-05T06:26:07.739Z,72.61
2022-11-05T06:28:35.263Z,72.82
2022-11-05T06:31:02.751Z,72.72
2022-11-05T06:33:30.355Z,72.32
2022-11-05T06:36:01.800Z,72.13
2022-11-05T06:38:31.059Z,71.73
2022-11-05T06:40:59.600Z,72.26
2022-11-05T06:43:30.480Z,72.18
2022-11-05T06:45:58.436Z,72.37
2022-11-05T06:48:25.824Z,72.16
2022-11-05T06:50:53.659Z,71.61
2022-11-05T06:53:21.101Z,71.24
2022-11-05T06:55:49.071Z,71.05
2022-11-05T06:58:16.427Z,70.97
2022-11-05T07:00:44.034Z,69.65
2022-11-05T07:03:12.076Z,71.22
2022-11-05T07:05:45.725Z,70.19
2022-11-05T07:08:13.637Z,69.81
2022-11-05T07:10:41.423Z,69.72
2022-11-05T07:13:09.305Z,69.96
2022-11-05T07:15:37.217Z,69.90
2022-11-05T07:18:05.440Z,69.81
2022-11-05T07:20:34.525Z,69.34
2022-11-05T07:23:02.867Z,68.39
2022-11-05T07:25:31.229Z,68.63
2022-11-05T07:27:58.946Z,67.48
2022-11-05T07:30:27.021Z,66.72
2022-11-05T07:32:54.906Z,66.75
2022-11-05T07:35:22.613Z,66.32
2022-11-05T07:37:50.942Z,65.85
2022-11-05T07:40:19.460Z,66.77
2022-11-05T07:42:55.026Z,66.63
2022-11-05T07:45:22.845Z,66.57
2022-11-05T07:47:58.052Z,65.64
2022-11-05T07:50:27.595Z,65.65
2022-11-05T07:53:00.452Z,65.16
2022-11-05T07:55:28.384Z,65.10
2022-11-05T07:57:56.051Z,64.84
2022-11-05T08:00:24.153Z,64.96
2022-11-05T08:03:05.601Z,65.45
2022-11-05T08:05:39.373Z,65.95
2022-11-05T08:08:07.943Z,64.34
2022-11-05T08:10:35.862Z,64.84
2022-11-05T08:13:03.326Z,64.07
2022-11-05T08:15:30.975Z,63.82
2022-11-05T08:18:05.131Z,63.51
2022-11-05T08:20:32.922Z,63.49
2022-11-05T08:23:00.369Z,62.29
2022-11-05T08:25:27.872Z,63.42
2022-11-05T08:28:05.598Z,61.80
2022-11-05T08:30:33.215Z,62.37
2022-11-05T08:33:05.179Z,61.97
2022-11-05T08:35:37.574Z,60.97
2022-11-05T08:38:06.302Z,61.45
2022-11-05T08:40:36.482Z,61.35
2022-11-05T08:43:04.944Z,61.28
2022-11-05T08:45:32.825Z,61.01
2022-11-05T08:48:08.335Z,61.04
2022-11-05T08:50:36.471Z,60.88
2022-11-05T08:53:05.301Z,61.64
2022-11-05T08:55:33.448Z,60.77
2022-11-05T08:58:02.438Z,60.64
2022-11-05T09:00:31.863Z,60.53
2022-11-05T09:03:01.029Z,60.21
2022-11-05T09:05:29.160Z,60.04
2022-11-05T09:08:00.983Z,58.92
2022-11-05T09:10:29.002Z,59.13
2022-11-05T09:12:56.446Z,58.73
2022-11-05T09:15:24.559Z,57.68
2022-11-05T09:17:52.010Z,59.33
2022-11-05T09:20:19.886Z,57.71
2022-11-05T09:22:47.577Z,59.01
2022-11-05T09:25:16.182Z,58.59
2022-11-05T09:27:43.946Z,57.97
2022-11-05T09:30:12.634Z,59.89
2022-11-05T09:32:40.032Z,60.22
2022-11-05T09:35:08.245Z,59.37
2022-11-05T09:37:36.664Z,60.03
2022-11-05T09:40:04.533Z,60.04
2022-11-05T09:42:38.054Z,59.75
2022-11-05T09:45:10.675Z,59.78
2022-11-05T09:47:43.284Z,59.15
2022-11-05T09:50:20.687Z,59.08
2022-11-05T09:52:48.341Z,59.92
2022-11-05T09:55:43.213Z,59.08
2022-11-05T09:58:26.010Z,59.48
2022-11-05T10:00:56.481Z,59.20
2022-11-05T10:03:24.325Z,58.96
2022-11-05T10:05:52.122Z,57.94
2022-11-05T10:08:23.486Z,58.27
2022-11-05T10:11:05.853Z,57.34
2022-11-05T10:13:42.294Z,57.31
2022-11-05T10:16:16.006Z,58.26
2022-11-05T10:18:45.042Z,58.27
2022-11-05T10:21:17.118Z,58.50
2022-11-05T10:23:45.433Z,58.04
2022-11-05T10:26:15.157Z,57.58
2022-11-05T10:28:42.622Z,58.10
2022-11-05T10:31:12.783Z,58.15
2022-11-05T10:33:45.659Z,58.43
2022-11-05T10:36:21.404Z,59.34
2022-11-05T10:38:49.009Z,59.45
2022-11-05T10:41:28.575Z,59.72
2022-11-05T10:44:11.522Z,59.70
2022-11-05T10:46:54.560Z,60.27
2022-11-05T10:49:44.047Z,60.10
2022-11-05T10:52:26.029Z,60.20
2022-11-05T10:54:55.329Z,60.84
2022-11-05T10:57:36.303Z,59.90
2022-11-05T11:00:16.434Z,60.01
2022-11-05T11:02:52.130Z,60.39
2022-11-05T11:05:31.315Z,60.54
2022-11-05T11:08:09.299Z,61.12
2022-11-05T11:10:41.256Z,61.05
2022-11-05T11:13:23.461Z,62.31
2022-11-05T11:15:51.428Z,62.13
2022-11-05T11:18:40.323Z,62.63
2022-11-05T11:21:17.338Z,61.99
2022-11-05T11:23:44.915Z,62.00
2022-11-05T11:26:12.216Z,62.12
2022-11-05T11:28:50.459Z,62.60
2022-11-05T11:31:21.709Z,62.78
2022-11-05T11:33:52.161Z,63.13
2022-11-05T11:36:20.501Z,62.95
2022-11-05T11:38:47.968Z,63.17
2022-11-05T11:41:35.326Z,62.78
2022-11-05T11:44:07.112Z,62.68
2022-11-05T11:46:34.958Z,62.80
2022-11-05T11:49:02.512Z,62.65
2022-11-05T11:51:45.682Z,62.59
2022-11-05T11:54:21.564Z,62.33
2022-11-05T11:56:49.051Z,62.87
2022-11-05T11:59:53.784Z,62.88
2022-11-05T12:02:33.511Z,63.82
2022-11-05T12:05:29.323Z,63.56
2022-11-05T12:07:58.398Z,63.68
2022-11-05T12:10:34.178Z,63.25
2022-11-05T12:13:20.814Z,64.31
2022-11-05T12:16:05.563Z,64.10
2022-11-05T12:18:39.179Z,64.08
2022-11-05T12:21:52.598Z,63.76
2022-11-05T12:24:21.245Z,63.22
2022-11-05T12:27:09.886Z,63.80
2022-11-05T12:29:55.555Z,63.52
2022-11-05T12:32:22.992Z,63.73
2022-11-05T12:34:56.390Z,63.10
2022-11-05T12:37:34.232Z,63.72
2022-11-05T12:40:20.436Z,63.10
2022-11-05T12:43:01.141Z,64.41
2022-11-05T12:45:42.275Z,64.33
2022-11-05T12:48:37.253Z,64.78
2022-11-05T12:51:11.379Z,64.76
2022-11-05T12:54:04.713Z,64.88
2022-11-05T12:56:34.466Z,64.69
2022-11-05T12:59:11.564Z,64.36
2022-11-05T13:01:42.667Z,65.02
2022-11-05T13:04:57.113Z,64.85
2022-11-05T13:07:35.691Z,64.37
2022-11-05T13:10:21.226Z,64.74
2022-11-05T13:12:56.136Z,65.15
2022-11-05T13:15:29.378Z,65.01
2022-11-05T13:18:03.498Z,65.04
2022-11-05T13:20:37.046Z,64.22
2022-11-05T13:23:31.527Z,64.97
2022-11-05T13:26:25.368Z,65.24
2022-11-05T13:29:01.950Z,65.41
2022-11-05T13:31:38.008Z,65.82
2022-11-05T13:34:09.812Z,65.39
2022-11-05T13:37:05.885Z,66.15
2022-11-05T13:39:42.371Z,66.18
2022-11-05T13:42:22.136Z,66.21
2022-11-05T13:45:22.043Z,65.90
2022-11-05T13:48:26.839Z,66.05
2022-11-05T13:51:07.550Z,66.04
2022-11-05T13:53:46.020Z,66.40
2022-11-05T13:56:41.372Z,66.31
2022-11-05T13:59:20.817Z,66.56
2022-11-05T14:01:55.313Z,66.45
2022-11-05T14:04:27.373Z,66.28
2022-11-05T14:06:55.086Z,65.89
2022-11-05T14:09:25.911Z,66.17
2022-11-05T14:11:57.245Z,66.70
2022-11-05T14:14:27.078Z,66.63
2022-11-05T14:17:09.971Z,66.04
2022-11-05T14:19:49.967Z,66.54
2022-11-05T14:22:33.157Z,66.32
2022-11-05T14:25:01.704Z,67.01
2022-11-05T14:27:29.635Z,66.72
2022-11-05T14:29:57.465Z,66.34
2022-11-05T14:32:44.879Z,66.93
2022-11-05T14:35:15.567Z,66.93
2022-11-05T14:37:43.080Z,67.34
2022-11-05T14:40:22.989Z,67.15
2022-11-05T14:42:55.162Z,67.43
2022-11-05T14:45:28.886Z,66.64
2022-11-05T14:48:01.548Z,67.40
2022-11-05T14:50:42.333Z,66.94
2022-11-05T14:53:31.598Z,67.31
2022-11-05T14:56:04.701Z,67.65
2022-11-05T14:58:34.107Z,67.05
2022-11-05T15:01:03.604Z,67.42
2022-11-05T15:03:45.811Z,67.59
2022-11-05T15:06:32.360Z,67.09
2022-11-05T15:09:19.844Z,67.43
2022-11-05T15:11:56.673Z,67.39
2022-11-05T15:14:58.950Z,67.67
2022-11-05T15:17:41.093Z,67.39
2022-11-05T15:20:10.863Z,67.56
2022-11-05T15:22:41.310Z,67.69
2022-11-05T15:25:17.868Z,67.54
2022-11-05T15:28:07.141Z,67.73
2022-11-05T15:30:34.780Z,68.14
2022-11-05T15:33:10.389Z,68.30
2022-11-05T15:35:39.606Z,68.18
2022-11-05T15:38:25.107Z,68.74
2022-11-05T15:41:06.176Z,68.42
2022-11-05T15:43:33.720Z,68.60
2022-11-05T15:46:13.767Z,67.88
2022-11-05T15:48:41.592Z,68.25
2022-11-05T15:51:09.260Z,67.90
2022-11-05T15:53:56.559Z,68.20
2022-11-05T15:56:39.950Z,68.34
2022-11-05T15:59:16.365Z,68.86
2022-11-05T16:02:05.842Z,68.87
2022-11-05T16:04:34.319Z,68.45
2022-11-05T16:07:07.867Z,68.65
2022-11-05T16:09:40.376Z,68.94
2022-11-05T16:12:19.904Z,68.82
2022-11-05T16:14:59.441Z,68.63
2022-11-05T16:17:29.541Z,68.59
2022-11-05T16:19:57.376Z,69.19
2022-11-05T16:22:24.806Z,68.74
2022-11-05T16:24:52.459Z,68.94
2022-11-05T16:27:21.391Z,68.68
2022-11-05T16:29:53.771Z,68.51
2022-11-05T16:32:29.867Z,68.20
2022-11-05T16:35:03.869Z,68.22
2022-11-05T16:37:39.891Z,68.02
2022-11-05T16:40:14.977Z,67.91
2022-11-05T16:42:42.599Z,68.32
2022-11-05T16:45:12.180Z,68.71
2022-11-05T16:47:39.691Z,68.47
2022-11-05T16:50:22.919Z,68.34
2022-11-05T16:52:51.089Z,68.31
2022-11-05T16:55:18.681Z,68.19
2022-11-05T16:57:49.394Z,68.12
2022-11-05T17:00:17.833Z,68.11
2022-11-05T17:02:45.594Z,68.04
2022-11-05T17:05:35.052Z,68.40
2022-11-05T17:08:03.681Z,67.98
2022-11-05T17:10:31.001Z,68.07
2022-11-05T17:12:58.787Z,68.50
2022-11-05T17:15:37.041Z,68.32
2022-11-05T17:18:04.960Z,68.11
2022-11-05T17:20:41.656Z,68.54
2022-11-05T17:23:10.715Z,68.88
2022-11-05T17:25:39.714Z,68.82
2022-11-05T17:28:07.215Z,68.62
2022-11-05T17:30:34.910Z,68.73
2022-11-05T17:33:03.337Z,68.61
2022-11-05T17:35:31.062Z,68.31
2022-11-05T17:37:58.628Z,68.41
2022-11-05T17:40:26.137Z,68.46
2022-11-05T17:42:53.758Z,68.55
2022-11-05T17:45:21.145Z,68.60
2022-11-05T17:47:49.006Z,68.87
2022-11-05T17:50:16.595Z,69.28
2022-11-05T17:52:44.119Z,69.59
2022-11-05T17:55:16.997Z,70.02
2022-11-05T17:57:48.574Z,69.91
2022-11-05T18:00:22.788Z,69.49
2022-11-05T18:02:51.864Z,70.15
2022-11-05T18:05:19.413Z,70.16
2022-11-05T18:07:47.386Z,70.19
2022-11-05T18:10:14.933Z,70.16
2022-11-05T18:12:42.828Z,70.74
2022-11-05T18:15:10.409Z,70.73
2022-11-05T18:17:38.395Z,70.48
2022-11-05T18:20:11.649Z,70.35
2022-11-05T18:22:41.963Z,70.44
2022-11-05T18:25:11.084Z,70.79
2022-11-05T18:27:40.351Z,70.71
2022-11-05T18:30:09.049Z,70.32
2022-11-05T18:32:36.828Z,70.43
2022-11-05T18:35:04.581Z,69.80
2022-11-05T18:37:32.181Z,69.65
2022-11-05T18:39:59.698Z,69.45
2022-11-05T18:42:27.204Z,69.61
2022-11-05T18:44:54.771Z,69.29
2022-11-05T18:47:22.408Z,68.95
2022-11-05T18:49:49.828Z,68.68
2022-11-05T18:52:17.418Z,68.64
2022-11-05T18:54:45.074Z,69.03
2022-11-05T18:57:12.605Z,69.48
2022-11-05T18:59:42.278Z,69.60
2022-11-05T19:02:11.185Z,69.81
2022-11-05T19:04:39.008Z,70.02
2022-11-05T19:07:06.870Z,70.24
2022-11-05T19:09:34.766Z,70.23
2022-11-05T19:12:02.608Z,70.34
2022-11-05T19:14:31.799Z,70.88
2022-11-05T19:16:59.558Z,70.94
2022-11-05T19:19:27.185Z,70.73
2022-11-05T19:21:54.747Z,70.72
2022-11-05T19:24:22.050Z,70.59
2022-11-05T19:26:49.606Z,71.01
2022-11-05T19:29:17.018Z,70.51
2022-11-05T19:31:44.748Z,70.40
2022-11-05T19:34:13.564Z,70.73
2022-11-05T19:36:41.585Z,70.61
2022-11-05T19:39:10.095Z,70.84
2022-11-05T19:41:37.704Z,70.58
2022-11-05T19:44:05.206Z,70.60
2022-11-05T19:46:32.949Z,70.40
2022-11-05T19:49:01.208Z,70.65
2022-11-05T19:51:30.240Z,70.52
2022-11-05T19:54:00.049Z,70.66
2022-11-05T19:56:32.261Z,71.26
2022-11-05T19:59:00.107Z,71.56
2022-11-05T20:01:28.499Z,71.57
2022-11-05T20:03:57.089Z,71.63
2022-11-05T20:06:28.863Z,71.88
2022-11-05T20:09:20.538Z,71.78
2022-11-05T20:11:45.474Z,72.02
2022-11-05T20:14:13.084Z,72.45
2022-11-05T20:16:41.554Z,72.30
2022-11-05T20:19:11.381Z,72.47
2022-11-05T20:21:38.945Z,72.32
2022-11-05T20:24:06.909Z,72.70
2022-11-05T20:26:34.518Z,72.84
2022-11-05T20:29:01.956Z,73.30
2022-11-05T20:31:29.498Z,72.90
2022-11-05T20:33:57.266Z,72.93
2022-11-05T20:36:25.358Z,73.26
2022-11-05T20:38:58.296Z,73.26
2022-11-05T20:41:26.280Z,73.15
2022-11-05T20:43:53.939Z,73.26
2022-11-05T20:46:22.095Z,73.60
2022-11-05T20:48:49.605Z,73.60
2022-11-05T20:51:19.106Z,73.55
2022-11-05T20:53:46.748Z,73.38
2022-11-05T20:56:19.101Z,73.49
2022-11-05T20:58:47.518Z,73.15
2022-11-05T21:01:16.858Z,73.06
2022-11-05T21:03:45.042Z,73.33
2022-11-05T21:06:12.776Z,73.08
2022-11-05T21:08:40.405Z,72.79
2022-11-05T21:11:08.173Z,72.91
2022-11-05T21:13:36.047Z,73.03
2022-11-05T21:16:05.251Z,73.21
2022-11-05T21:18:33.541Z,72.78
2022-11-05T21:21:04.235Z,73.00
2022-11-05T21:23:31.732Z,73.10
2022-11-05T21:25:59.113Z,73.16
2022-11-05T21:28:26.901Z,73.14
2022-11-05T21:30:54.683Z,73.03
2022-11-05T21:33:22.097Z,73.03
2022-11-05T21:35:49.618Z,73.09
2022-11-05T21:38:17.394Z,72.74
2022-11-05T21:40:45.201Z,72.94
2022-11-05T21:43:13.232Z,72.75
2022-11-05T21:45:41.882Z,72.61
2022-11-05T21:48:09.790Z,72.45
2022-11-05T21:50:59.887Z,71.98
2022-11-05T21:53:46.222Z,72.32
2022-11-05T21:56:36.490Z,72.57
2022-11-05T21:59:22.836Z,72.08
2022-11-05T22:01:50.640Z,72.13
2022-11-05T22:04:18.121Z,71.99
2022-11-05T22:06:45.708Z,71.93
2022-11-05T22:09:13.274Z,71.92
2022-11-05T22:11:40.822Z,71.48
2022-11-05T22:14:08.443Z,71.84
2022-11-05T22:16:35.995Z,71.33
2022-11-05T22:19:03.675Z,71.61
2022-11-05T22:21:31.148Z,72.27
2022-11-05T22:23:58.448Z,72.24
2022-11-05T22:26:26.044Z,72.36
2022-11-05T22:28:54.822Z,72.35
2022-11-05T22:31:22.633Z,72.40
2022-11-05T22:33:50.233Z,72.21
2022-11-05T22:36:17.705Z,72.72
2022-11-05T22:38:45.165Z,72.52
2022-11-05T22:41:14.618Z,72.90
2022-11-05T22:43:42.734Z,72.83
2022-11-05T22:46:12.876Z,72.98
2022-11-05T22:48:40.707Z,73.16
2022-11-05T22:51:09.668Z,72.76
2022-11-05T22:53:37.359Z,72.69
2022-11-05T22:56:05.691Z,72.96
2022-11-05T22:58:33.328Z,73.10
2022-11-05T23:01:00.839Z,72.79
2022-11-05T23:03:29.271Z,72.80
2022-11-05T23:05:58.452Z,73.09
2022-11-05T23:08:44.554Z,72.97
2022-11-05T23:11:38.846Z,73.22
2022-11-05T23:14:11.169Z,72.98
2022-11-05T23:16:57.250Z,72.76
2022-11-05T23:19:43.166Z,72.85
2022-11-05T23:22:39.981Z,72.82
2022-11-05T23:25:09.282Z,72.97
2022-11-05T23:27:37.670Z,72.73
2022-11-05T23:30:16.460Z,72.80
2022-11-05T23:32:44.165Z,72.70
2022-11-05T23:35:11.702Z,72.69
2022-11-05T23:37:57.633Z,72.98
2022-11-05T23:40:26.710Z,72.85
2022-11-05T23:43:13.108Z,72.74
2022-11-05T23:45:47.877Z,72.96
2022-11-05T23:48:18.928Z,73.03
2022-11-05T23:50:56.278Z,73.14
2022-11-05T23:53:23.825Z,72.79
2022-11-05T23:55:51.204Z,72.97
2022-11-05T23:58:19.178Z,72.90
